createdAt,value
2022-12-13T00:02:18.512Z,74.49
2022-12-13T00:05:47.496Z,74.42
2022-12-13T00:09:16.362Z,74.33
2022-12-13T00:12:43.353Z,74.39
2022-12-13T00:16:13.436Z,74.41
2022-12-13T00:19:40.995Z,74.48
2022-12-13T00:23:07.803Z,74.65
2022-12-13T00:26:35.431Z,74.68
2022-12-13T00:30:02.574Z,74.64
2022-12-13T00:33:30.171Z,74.70
2022-12-13T00:37:00.273Z,74.65
2022-12-13T00:40:29.671Z,74.57
2022-12-13T00:43:56.428Z,74.57
2022-12-13T00:47:23.738Z,74.44
2022-12-13T00:51:01.200Z,74.42
2022-12-13T00:54:31.461Z,74.46
2022-12-13T00:58:20.089Z,74.37
2022-12-13T01:01:53.825Z,74.27
2022-12-13T01:05:47.267Z,74.14
2022-12-13T01:09:11.628Z,74.15
2022-12-13T01:12:38.356Z,74.05
2022-12-13T01:16:07.827Z,74.10
2022-12-13T01:19:35.353Z,74.05
2022-12-13T01:23:02.314Z,74.14
2022-12-13T01:26:29.554Z,73.89
2022-12-13T01:29:56.760Z,73.91
2022-12-13T01:38:32.107Z,74.15
2022-12-13T01:42:05.457Z,74.36
2022-12-13T01:45:32.505Z,74.25
2022-12-13T01:49:05.071Z,74.29
2022-12-13T01:52:34.962Z,74.45
2022-12-13T01:56:07.537Z,74.43
2022-12-13T01:59:34.387Z,74.14
2022-12-13T02:03:02.707Z,74.13
2022-12-13T02:06:34.630Z,73.97
2022-12-13T02:10:05.389Z,73.99
2022-12-13T02:13:35.961Z,74.04
2022-12-13T02:17:15.012Z,74.12
2022-12-13T02:21:13.705Z,73.74
2022-12-13T02:25:13.157Z,73.66
2022-12-13T02:29:06.576Z,73.76
2022-12-13T02:32:44.043Z,73.83
2022-12-13T02:36:15.868Z,73.66
2022-12-13T02:39:48.764Z,73.96
2022-12-13T02:43:22.163Z,73.88
2022-12-13T02:46:56.845Z,73.70
2022-12-13T02:50:26.290Z,73.77
2022-12-13T02:53:52.928Z,73.78
2022-12-13T02:57:35.687Z,73.71
2022-12-13T03:01:27.970Z,73.66
2022-12-13T03:05:21.841Z,73.82
2022-12-13T03:08:58.762Z,73.92
2022-12-13T03:12:56.122Z,73.71
2022-12-13T03:16:29.514Z,73.70
2022-12-13T03:19:56.387Z,73.53
2022-12-13T03:23:24.793Z,73.50
2022-12-13T03:26:53.559Z,73.50
2022-12-13T03:30:24.209Z,73.43
2022-12-13T03:33:52.156Z,73.32
2022-12-13T03:37:18.930Z,73.25
2022-12-13T03:40:47.510Z,73.12
2022-12-13T03:44:14.301Z,73.16
2022-12-13T03:47:40.948Z,73.10
2022-12-13T03:51:11.460Z,73.27
2022-12-13T03:54:38.923Z,73.13
2022-12-13T03:58:12.047Z,73.20
2022-12-13T04:01:39.560Z,73.16
2022-12-13T04:05:07.762Z,73.12
2022-12-13T04:08:35.436Z,73.19
2022-12-13T04:12:19.771Z,73.29
2022-12-13T04:15:50.934Z,73.34
2022-12-13T04:19:22.675Z,73.36
2022-12-13T04:22:50.406Z,73.55
2022-12-13T04:26:17.358Z,73.49
2022-12-13T04:29:44.110Z,73.63
2022-12-13T04:33:10.839Z,73.64
2022-12-13T04:36:37.395Z,73.66
2022-12-13T04:40:04.845Z,73.54
2022-12-13T04:43:31.696Z,73.41
2022-12-13T04:47:00.846Z,73.51
2022-12-13T04:50:28.463Z,73.38
2022-12-13T04:53:55.690Z,73.49
2022-12-13T04:57:40.581Z,73.41
2022-12-13T05:01:10.047Z,73.45
2022-12-13T05:04:36.950Z,73.53
2022-12-13T05:08:03.927Z,73.57
2022-12-13T05:11:35.783Z,73.48
2022-12-13T05:15:02.982Z,73.57
2022-12-13T05:18:31.208Z,73.76
2022-12-13T05:21:57.541Z,73.77
2022-12-13T05:25:28.809Z,73.79
2022-12-13T05:28:56.533Z,73.68
2022-12-13T05:32:23.298Z,73.91
2022-12-13T05:35:53.879Z,73.79
2022-12-13T05:39:27.851Z,73.86
2022-12-13T05:43:00.768Z,73.76
2022-12-13T05:46:29.033Z,73.82
2022-12-13T05:49:55.583Z,73.76
2022-12-13T05:53:30.320Z,73.80
2022-12-13T05:56:58.220Z,73.79
2022-12-13T06:00:30.141Z,73.84
2022-12-13T06:03:57.132Z,73.82
2022-12-13T06:07:24.619Z,73.78
2022-12-13T06:11:10.613Z,73.89
2022-12-13T06:14:39.265Z,73.84
2022-12-13T06:18:05.665Z,73.73
2022-12-13T06:21:43.579Z,73.76
2022-12-13T06:25:31.542Z,73.90
2022-12-13T06:28:59.472Z,73.95
2022-12-13T06:32:25.788Z,73.95
2022-12-13T06:35:52.930Z,73.98
2022-12-13T06:39:21.423Z,73.98
2022-12-13T06:42:48.331Z,74.10
2022-12-13T06:46:15.115Z,74.10
2022-12-13T06:49:44.957Z,74.30
2022-12-13T06:53:11.816Z,74.30
2022-12-13T06:56:38.841Z,74.12
2022-12-13T07:00:06.983Z,73.92
2022-12-13T07:03:33.527Z,73.76
2022-12-13T07:07:02.875Z,73.76
2022-12-13T07:10:29.505Z,73.81
2022-12-13T07:13:57.082Z,73.97
2022-12-13T07:17:32.367Z,73.91
2022-12-13T07:21:00.770Z,73.91
2022-12-13T07:24:28.879Z,73.88
2022-12-13T07:28:02.675Z,73.98
2022-12-13T07:31:29.905Z,73.86
2022-12-13T07:34:56.927Z,74.01
2022-12-13T07:38:23.594Z,74.15
2022-12-13T07:41:54.486Z,74.19
2022-12-13T07:45:21.879Z,74.08
2022-12-13T07:48:48.601Z,74.11
2022-12-13T07:52:15.493Z,74.17
2022-12-13T07:55:43.506Z,74.25
2022-12-13T07:59:12.435Z,74.19
2022-12-13T08:02:40.401Z,74.22
2022-12-13T08:06:09.676Z,74.18
2022-12-13T08:09:36.235Z,74.14
2022-12-13T08:13:06.681Z,74.10
2022-12-13T08:16:33.868Z,74.13
2022-12-13T08:20:00.537Z,74.19
2022-12-13T08:23:27.751Z,74.17
2022-12-13T08:26:54.571Z,74.25
2022-12-13T08:30:22.054Z,74.05
2022-12-13T08:33:50.654Z,74.13
2022-12-13T08:37:17.602Z,74.13
2022-12-13T08:40:45.058Z,74.11
2022-12-13T08:44:12.782Z,74.09
2022-12-13T08:47:42.116Z,74.13
2022-12-13T08:51:11.964Z,74.32
2022-12-13T08:54:46.547Z,74.15
2022-12-13T08:58:14.472Z,74.26
2022-12-13T09:01:41.015Z,74.29
2022-12-13T09:05:09.351Z,74.32
2022-12-13T09:08:36.182Z,74.30
2022-12-13T09:12:03.661Z,74.25
2022-12-13T09:15:45.828Z,74.43
2022-12-13T09:19:25.038Z,74.02
2022-12-13T09:23:01.400Z,74.04
2022-12-13T09:26:29.446Z,74.12
2022-12-13T09:30:06.999Z,74.10
2022-12-13T09:33:41.497Z,73.87
2022-12-13T09:37:12.718Z,73.76
2022-12-13T09:40:41.475Z,73.91
2022-12-13T09:44:32.422Z,73.78
2022-12-13T09:48:04.844Z,73.80
2022-12-13T09:51:55.323Z,73.63
2022-12-13T09:55:33.774Z,73.69
2022-12-13T09:59:00.422Z,73.57
2022-12-13T10:02:30.295Z,73.52
2022-12-13T10:06:01.077Z,73.54
2022-12-13T10:09:28.868Z,73.47
2022-12-13T10:13:02.917Z,73.38
2022-12-13T10:16:36.513Z,73.35
2022-12-13T10:20:04.994Z,73.40
2022-12-13T10:23:59.379Z,73.54
2022-12-13T10:27:28.110Z,73.67
2022-12-13T10:30:57.164Z,73.63
2022-12-13T10:34:39.166Z,73.54
2022-12-13T10:38:31.978Z,73.68
2022-12-13T10:42:06.101Z,73.63
2022-12-13T10:45:32.745Z,73.44
2022-12-13T10:49:00.422Z,73.51
2022-12-13T10:52:34.991Z,73.32
2022-12-13T10:56:11.206Z,73.17
2022-12-13T10:59:39.845Z,73.06
2022-12-13T11:03:07.373Z,73.08
2022-12-13T11:06:46.046Z,73.07
2022-12-13T11:10:27.098Z,73.00
2022-12-13T11:14:01.559Z,73.07
2022-12-13T11:17:31.309Z,73.04
2022-12-13T11:21:01.136Z,73.08
2022-12-13T11:24:34.431Z,73.00
2022-12-13T11:28:26.270Z,72.86
2022-12-13T11:32:03.954Z,72.83
2022-12-13T11:35:37.706Z,73.04
2022-12-13T11:39:18.394Z,72.78
2022-12-13T11:42:49.862Z,72.92
2022-12-13T11:46:28.867Z,72.97
2022-12-13T11:49:58.849Z,72.76
2022-12-13T11:53:32.544Z,72.60
2022-12-13T11:57:05.300Z,72.76
2022-12-13T12:00:36.059Z,72.67
2022-12-13T12:04:18.025Z,72.45
2022-12-13T12:08:30.965Z,72.35
2022-12-13T12:11:45.721Z,72.31
2022-12-13T12:15:26.621Z,72.27
2022-12-13T12:18:54.605Z,72.07
2022-12-13T12:22:40.143Z,72.14
2022-12-13T12:26:11.429Z,71.96
2022-12-13T12:30:03.073Z,71.97
2022-12-13T12:33:41.070Z,71.82
2022-12-13T12:37:18.834Z,71.78
2022-12-13T12:41:18.607Z,71.79
2022-12-13T12:44:59.186Z,71.66
2022-12-13T12:48:53.715Z,71.49
2022-12-13T12:52:39.274Z,71.57
2022-12-13T12:56:36.509Z,71.62
2022-12-13T13:00:16.148Z,71.48
2022-12-13T13:03:45.284Z,71.64
2022-12-13T13:07:23.080Z,71.50
2022-12-13T13:10:51.723Z,71.40
2022-12-13T13:14:35.014Z,71.31
2022-12-13T13:18:02.534Z,71.23
2022-12-13T13:21:44.861Z,71.35
2022-12-13T13:25:35.157Z,71.22
2022-12-13T13:29:43.106Z,71.29
2022-12-13T13:33:46.686Z,71.43
2022-12-13T13:37:30.581Z,71.69
2022-12-13T13:40:57.583Z,71.67
2022-12-13T13:44:57.018Z,71.58
2022-12-13T13:48:43.117Z,71.48
2022-12-13T13:52:25.585Z,71.42
2022-12-13T13:56:02.193Z,71.32
2022-12-13T14:00:24.215Z,71.24
2022-12-13T14:04:37.960Z,71.11
2022-12-13T14:12:20.209Z,71.25
2022-12-13T14:16:22.325Z,71.25
2022-12-13T14:20:22.909Z,71.06
2022-12-13T14:24:00.688Z,71.05
2022-12-13T14:27:41.390Z,71.08
2022-12-13T14:31:22.116Z,71.20
2022-12-13T14:34:49.161Z,71.22
2022-12-13T14:38:25.160Z,71.17
2022-12-13T14:41:56.615Z,71.19
2022-12-13T14:45:32.041Z,71.13
2022-12-13T14:49:01.622Z,71.32
2022-12-13T14:52:34.535Z,71.41
2022-12-13T14:56:28.783Z,71.36
2022-12-13T14:59:58.552Z,71.38
2022-12-13T15:03:28.954Z,71.28
2022-12-13T15:07:06.680Z,71.33
2022-12-13T15:10:48.581Z,71.40
2022-12-13T15:14:20.045Z,71.65
2022-12-13T15:17:46.444Z,71.49
2022-12-13T15:21:28.056Z,71.66
2022-12-13T15:25:01.542Z,71.68
2022-12-13T15:28:37.210Z,71.60
2022-12-13T15:32:12.382Z,71.72
2022-12-13T15:35:40.318Z,71.53
2022-12-13T15:39:07.464Z,71.47
2022-12-13T15:42:37.348Z,71.27
2022-12-13T15:46:07.850Z,71.20
2022-12-13T15:49:37.703Z,71.38
2022-12-13T15:53:07.544Z,71.40
2022-12-13T15:56:37.600Z,71.20
2022-12-13T16:00:30.953Z,71.30
2022-12-13T16:03:59.154Z,71.37
2022-12-13T16:07:29.993Z,71.36
2022-12-13T16:10:58.509Z,71.49
2022-12-13T16:14:49.255Z,71.40
2022-12-13T16:18:26.610Z,71.40
2022-12-13T16:21:55.697Z,71.45
2022-12-13T16:25:23.339Z,71.45
2022-12-13T16:29:03.376Z,71.31
2022-12-13T16:32:36.208Z,71.34
2022-12-13T16:36:17.194Z,71.29
2022-12-13T16:39:44.243Z,71.42
2022-12-13T16:43:18.527Z,71.49
2022-12-13T16:47:11.961Z,71.58
2022-12-13T16:50:33.078Z,71.74
2022-12-13T16:54:00.491Z,71.55
2022-12-13T16:57:27.550Z,71.81
2022-12-13T17:00:59.884Z,71.63
2022-12-13T17:04:29.089Z,71.44
2022-12-13T17:07:57.682Z,71.45
2022-12-13T17:11:24.883Z,71.31
2022-12-13T17:14:52.938Z,71.34
2022-12-13T17:18:20.939Z,71.26
2022-12-13T17:21:49.756Z,71.19
2022-12-13T17:25:18.266Z,71.17
2022-12-13T17:28:49.823Z,71.06
2022-12-13T17:32:22.386Z,71.04
2022-12-13T17:35:52.787Z,71.19
2022-12-13T17:39:21.680Z,71.22
2022-12-13T17:42:56.678Z,71.22
2022-12-13T17:46:23.948Z,71.22
2022-12-13T17:49:53.199Z,71.31
2022-12-13T17:53:28.064Z,71.29
2022-12-13T17:57:05.625Z,71.34
2022-12-13T18:00:35.969Z,71.46
2022-12-13T18:04:05.938Z,71.51
2022-12-13T18:07:38.783Z,71.29
2022-12-13T18:14:57.359Z,71.39
2022-12-13T18:18:27.234Z,71.58
2022-12-13T18:21:57.035Z,71.51
2022-12-13T18:25:24.753Z,71.67
2022-12-13T18:28:53.350Z,71.59
2022-12-13T18:32:23.821Z,71.54
2022-12-13T18:35:52.973Z,71.52
2022-12-13T18:39:26.300Z,71.43
2022-12-13T18:42:53.746Z,71.36
2022-12-13T18:46:24.292Z,71.28
2022-12-13T18:49:57.480Z,71.22
2022-12-13T18:53:28.317Z,71.09
2022-12-13T18:56:58.349Z,71.21
2022-12-13T19:00:27.188Z,71.19
2022-12-13T19:03:59.611Z,71.11
2022-12-13T19:07:27.217Z,71.05
2022-12-13T19:10:54.816Z,71.09
2022-12-13T19:14:26.888Z,71.22
2022-12-13T19:17:54.423Z,71.21
2022-12-13T19:21:32.705Z,71.04
2022-12-13T19:25:01.483Z,71.20
2022-12-13T19:28:32.920Z,70.96
2022-12-13T19:32:02.645Z,71.24
2022-12-13T19:35:34.334Z,71.22
2022-12-13T19:39:05.971Z,71.13
2022-12-13T19:42:35.978Z,71.07
2022-12-13T19:46:08.531Z,71.23
2022-12-13T19:49:37.329Z,71.43
2022-12-13T19:53:07.577Z,71.46
2022-12-13T19:56:35.113Z,71.44
2022-12-13T20:00:02.878Z,71.53
2022-12-13T20:03:36.454Z,71.63
2022-12-13T20:07:03.818Z,71.69
2022-12-13T20:10:31.098Z,71.54
2022-12-13T20:13:59.260Z,71.39
2022-12-13T20:17:30.297Z,71.42
2022-12-13T20:21:13.184Z,71.28
2022-12-13T20:24:44.647Z,71.24
2022-12-13T20:28:16.321Z,71.32
2022-12-13T20:31:48.659Z,71.33
2022-12-13T20:35:16.400Z,71.17
2022-12-13T20:38:43.877Z,71.23
2022-12-13T20:42:11.565Z,71.17
2022-12-13T20:45:40.167Z,71.05
2022-12-13T20:49:10.404Z,71.15
2022-12-13T20:52:37.402Z,71.03
2022-12-13T20:56:05.491Z,71.30
2022-12-13T20:59:35.216Z,71.13
2022-12-13T21:03:06.802Z,70.93
2022-12-13T21:06:42.973Z,70.84
2022-12-13T21:10:11.739Z,70.88
2022-12-13T21:13:38.599Z,70.86
2022-12-13T21:17:09.931Z,70.81
2022-12-13T21:20:37.666Z,70.91
2022-12-13T21:24:11.218Z,70.89
2022-12-13T21:27:44.501Z,70.92
2022-12-13T21:31:23.468Z,70.78
2022-12-13T21:34:49.974Z,70.65
2022-12-13T21:38:18.720Z,70.88
2022-12-13T21:41:48.550Z,70.60
2022-12-13T21:45:16.323Z,70.63
2022-12-13T21:48:46.864Z,70.44
2022-12-13T21:52:16.926Z,70.63
2022-12-13T21:55:48.152Z,70.59
2022-12-13T21:59:18.227Z,70.68
2022-12-13T22:02:44.768Z,70.53
2022-12-13T22:06:11.700Z,70.59
2022-12-13T22:09:40.497Z,70.34
2022-12-13T22:13:07.066Z,70.30
2022-12-13T22:16:34.024Z,70.44
2022-12-13T22:20:26.156Z,70.59
2022-12-13T22:24:52.921Z,70.83
2022-12-13T22:28:36.433Z,70.73
2022-12-13T22:32:03.282Z,70.71
2022-12-13T22:35:30.540Z,70.91
2022-12-13T22:38:57.279Z,70.84
2022-12-13T22:42:23.865Z,70.87
2022-12-13T22:45:50.928Z,70.72
2022-12-13T22:49:17.595Z,70.94
2022-12-13T22:52:43.933Z,70.91
2022-12-13T22:56:17.692Z,70.81
2022-12-13T22:59:45.015Z,70.68
2022-12-13T23:03:33.275Z,70.86
2022-12-13T23:07:03.715Z,70.85
2022-12-13T23:10:50.512Z,70.87
2022-12-13T23:14:21.537Z,70.71
2022-12-13T23:17:49.785Z,70.60
2022-12-13T23:21:17.549Z,70.93
2022-12-13T23:24:46.989Z,70.92
2022-12-13T23:28:14.071Z,70.77
2022-12-13T23:31:43.071Z,70.85
2022-12-13T23:35:18.136Z,70.42
2022-12-13T23:38:45.805Z,69.95
2022-12-13T23:42:12.949Z,69.97
2022-12-13T23:45:40.834Z,70.01
2022-12-13T23:49:09.531Z,70.11
2022-12-13T23:52:38.302Z,70.06
2022-12-13T23:56:05.874Z,70.15
2022-12-13T23:59:33.289Z,70.20
